createdAt,value
2022-10-24T00:01:42.684Z,12.75
2022-10-24T00:04:10.972Z,11.65
2022-10-24T00:06:39.295Z,10.93
2022-10-24T00:09:07.721Z,11.77
2022-10-24T00:11:38.610Z,12.73
2022-10-24T00:14:07.022Z,13.32
2022-10-24T00:16:35.886Z,13.50
2022-10-24T00:19:04.221Z,15.40
2022-10-24T00:21:32.538Z,17.15
2022-10-24T00:24:01.138Z,13.95
2022-10-24T00:26:30.210Z,13.85
2022-10-24T00:31:29.597Z,14.82
2022-10-24T00:33:58.089Z,12.82
2022-10-24T00:36:26.552Z,13.68
2022-10-24T00:38:55.280Z,13.48
2022-10-24T00:41:25.480Z,12.30
2022-10-24T00:44:16.378Z,11.68
2022-10-24T00:46:47.880Z,14.52
2022-10-24T00:49:17.383Z,15.18
2022-10-24T00:51:46.068Z,13.30
2022-10-24T00:54:15.110Z,13.75
2022-10-24T00:56:46.932Z,12.48
2022-10-24T00:59:19.351Z,11.07
2022-10-24T01:01:47.931Z,13.40
2022-10-24T01:04:16.583Z,19.08
2022-10-24T01:06:48.776Z,16.13
2022-10-24T01:09:25.674Z,12.45
2022-10-24T01:12:04.717Z,17.30
2022-10-24T01:14:43.344Z,14.75
2022-10-24T01:17:18.054Z,17.33
2022-10-24T01:20:23.879Z,15.70
2022-10-24T01:23:05.057Z,13.95
2022-10-24T01:25:40.338Z,17.98
2022-10-24T01:28:10.876Z,16.38
2022-10-24T01:30:43.990Z,16.85
2022-10-24T01:33:19.052Z,15.77
2022-10-24T01:35:52.976Z,20.55
2022-10-24T01:38:25.504Z,18.48
2022-10-24T01:40:57.899Z,18.23
2022-10-24T01:43:29.027Z,22.58
2022-10-24T01:46:03.575Z,20.63
2022-10-24T01:48:36.652Z,17.30
2022-10-24T01:51:06.128Z,20.35
2022-10-24T01:53:35.421Z,14.77
2022-10-24T01:56:03.926Z,19.95
2022-10-24T01:58:32.273Z,21.08
2022-10-24T02:01:12.410Z,20.88
2022-10-24T02:03:43.917Z,21.83
2022-10-24T02:06:14.325Z,19.15
2022-10-24T02:08:44.584Z,25.10
2022-10-24T02:11:13.343Z,22.52
2022-10-24T02:13:46.461Z,21.30
2022-10-24T02:16:17.749Z,25.73
2022-10-24T02:18:46.257Z,19.00
2022-10-24T02:21:20.987Z,24.77
2022-10-24T02:26:24.136Z,22.50
2022-10-24T02:28:58.754Z,28.85
2022-10-24T02:31:33.156Z,22.60
2022-10-24T02:34:02.786Z,23.98
2022-10-24T02:36:31.985Z,23.17
2022-10-24T02:39:01.076Z,25.92
2022-10-24T02:41:32.640Z,19.55
2022-10-24T02:44:02.126Z,23.30
2022-10-24T02:46:32.599Z,23.27
2022-10-24T02:49:03.006Z,21.60
2022-10-24T02:51:34.088Z,21.17
2022-10-24T02:54:03.156Z,24.17
2022-10-24T02:56:31.673Z,29.05
2022-10-24T02:58:59.990Z,21.73
2022-10-24T03:01:28.425Z,20.42
2022-10-24T03:03:58.207Z,19.27
2022-10-24T03:06:26.779Z,19.02
2022-10-24T03:08:55.061Z,19.77
2022-10-24T03:11:23.389Z,20.02
2022-10-24T03:13:51.889Z,19.15
2022-10-24T03:16:20.389Z,17.88
2022-10-24T03:18:48.698Z,18.48
2022-10-24T03:21:18.390Z,17.65
2022-10-24T03:23:46.670Z,15.45
2022-10-24T03:26:15.025Z,24.70
2022-10-24T03:28:43.285Z,20.27
2022-10-24T03:31:11.719Z,15.75
2022-10-24T03:33:40.068Z,15.50
2022-10-24T03:36:09.006Z,16.45
2022-10-24T03:38:38.725Z,15.95
2022-10-24T03:41:07.354Z,20.55
2022-10-24T03:43:35.665Z,11.93
2022-10-24T03:46:03.943Z,15.07
2022-10-24T03:48:32.519Z,14.70
2022-10-24T03:51:00.877Z,14.35
2022-10-24T03:53:29.184Z,18.38
2022-10-24T03:55:59.893Z,16.00
2022-10-24T03:58:28.290Z,14.45
2022-10-24T04:00:58.766Z,13.10
2022-10-24T04:03:27.755Z,13.38
2022-10-24T04:05:56.283Z,12.93
2022-10-24T04:08:24.603Z,13.15
2022-10-24T04:10:52.941Z,11.52
2022-10-24T04:13:22.875Z,13.50
2022-10-24T04:15:51.239Z,12.45
2022-10-24T04:18:19.547Z,12.95
2022-10-24T04:20:47.862Z,13.05
2022-10-24T04:23:16.229Z,11.90
2022-10-24T04:25:44.949Z,9.52
2022-10-24T04:28:13.277Z,10.68
2022-10-24T04:33:16.934Z,8.05
2022-10-24T04:35:49.213Z,7.43
2022-10-24T04:38:17.773Z,10.98
2022-10-24T04:40:47.302Z,11.55
2022-10-24T04:43:15.606Z,8.88
2022-10-24T04:45:45.334Z,8.93
2022-10-24T04:48:14.048Z,8.15
2022-10-24T04:50:49.837Z,9.73
2022-10-24T04:53:18.124Z,7.30
2022-10-24T04:55:46.474Z,9.82
2022-10-24T04:58:14.808Z,7.38
2022-10-24T05:00:46.771Z,9.88
2022-10-24T05:03:15.407Z,10.40
2022-10-24T05:05:43.708Z,7.63
2022-10-24T05:08:12.246Z,7.45
2022-10-24T05:10:40.565Z,8.18
2022-10-24T05:13:09.123Z,9.93
2022-10-24T05:15:37.760Z,8.30
2022-10-24T05:18:07.513Z,7.47
2022-10-24T05:20:35.847Z,9.95
2022-10-24T05:23:04.310Z,8.98
2022-10-24T05:25:32.619Z,10.77
2022-10-24T05:28:00.904Z,10.48
2022-10-24T05:30:29.299Z,8.38
2022-10-24T05:32:57.610Z,10.90
2022-10-24T05:35:27.316Z,11.23
2022-10-24T05:37:55.668Z,8.95
2022-10-24T05:40:24.087Z,8.98
2022-10-24T05:42:52.944Z,11.32
2022-10-24T05:45:21.625Z,10.57
2022-10-24T05:47:49.926Z,10.00
2022-10-24T05:50:18.361Z,11.80
2022-10-24T05:52:48.081Z,10.18
2022-10-24T05:55:18.153Z,10.10
2022-10-24T05:57:47.245Z,8.73
2022-10-24T06:00:17.900Z,11.10
2022-10-24T06:05:20.323Z,9.18
2022-10-24T06:07:49.991Z,8.85
2022-10-24T06:10:18.288Z,10.68
2022-10-24T06:12:46.827Z,10.07
2022-10-24T06:15:15.489Z,10.48
2022-10-24T06:17:43.791Z,9.95
2022-10-24T06:20:12.531Z,8.45
2022-10-24T06:22:40.973Z,9.13
2022-10-24T06:25:11.208Z,9.30
2022-10-24T06:27:40.992Z,10.07
2022-10-24T06:30:12.053Z,9.50
2022-10-24T06:32:43.799Z,7.85
2022-10-24T06:35:14.846Z,9.82
2022-10-24T06:37:47.209Z,7.18
2022-10-24T06:40:18.751Z,8.00
2022-10-24T06:42:47.298Z,11.73
2022-10-24T06:45:15.790Z,13.00
2022-10-24T06:47:44.732Z,8.15
2022-10-24T06:50:13.471Z,8.68
2022-10-24T06:52:41.843Z,8.45
2022-10-24T06:55:10.958Z,7.15
2022-10-24T06:57:42.106Z,8.00
2022-10-24T07:00:12.104Z,11.10
2022-10-24T07:02:40.454Z,14.00
2022-10-24T07:05:12.868Z,8.68
2022-10-24T07:07:43.139Z,10.15
2022-10-24T07:10:14.216Z,7.32
2022-10-24T07:12:44.634Z,7.70
2022-10-24T07:15:13.803Z,9.90
2022-10-24T07:17:42.577Z,8.95
2022-10-24T07:20:12.147Z,6.78
2022-10-24T07:22:40.778Z,9.90
2022-10-24T07:25:10.257Z,6.32
2022-10-24T07:27:38.877Z,8.95
2022-10-24T07:30:10.551Z,9.90
2022-10-24T07:32:39.090Z,7.63
2022-10-24T07:35:08.269Z,9.45
2022-10-24T07:37:36.590Z,6.13
2022-10-24T07:40:05.366Z,5.10
2022-10-24T07:42:33.689Z,6.07
2022-10-24T07:45:02.865Z,7.75
2022-10-24T07:47:33.294Z,7.55
2022-10-24T07:50:01.617Z,5.40
2022-10-24T07:52:31.090Z,7.18
2022-10-24T07:54:59.546Z,5.40
2022-10-24T07:57:27.878Z,6.07
2022-10-24T07:59:59.373Z,5.63
2022-10-24T08:02:27.780Z,6.13
2022-10-24T08:04:57.501Z,6.53
2022-10-24T08:07:26.046Z,6.75
2022-10-24T08:09:54.360Z,7.85
2022-10-24T08:12:22.757Z,6.93
2022-10-24T08:14:52.306Z,7.50
2022-10-24T08:17:21.750Z,3.65
2022-10-24T08:19:50.399Z,2.50
2022-10-24T08:22:20.206Z,5.35
2022-10-24T08:24:48.614Z,4.40
2022-10-24T08:27:16.936Z,4.20
2022-10-24T08:29:45.289Z,3.20
2022-10-24T08:32:13.623Z,5.10
2022-10-24T08:34:41.953Z,5.15
2022-10-24T08:37:10.482Z,3.88
2022-10-24T08:39:41.349Z,4.22
2022-10-24T08:42:13.441Z,4.75
2022-10-24T08:44:43.617Z,3.97
2022-10-24T08:47:19.960Z,4.60
2022-10-24T08:49:52.004Z,4.72
2022-10-24T08:52:27.776Z,10.73
2022-10-24T08:54:58.061Z,5.05
2022-10-24T08:57:28.972Z,4.85
2022-10-24T09:00:00.966Z,4.47
2022-10-24T09:02:32.738Z,4.07
2022-10-24T09:05:02.953Z,4.57
2022-10-24T09:07:31.498Z,5.53
2022-10-24T09:10:07.388Z,5.22
2022-10-24T09:12:36.265Z,5.35
2022-10-24T09:15:09.768Z,5.82
2022-10-24T09:17:38.335Z,4.90
2022-10-24T09:20:22.509Z,4.50
2022-10-24T09:22:50.969Z,4.20
2022-10-24T09:25:24.007Z,6.10
2022-10-24T09:27:52.838Z,5.45
2022-10-24T09:30:22.859Z,3.50
2022-10-24T09:32:51.185Z,6.53
2022-10-24T09:35:21.713Z,4.68
2022-10-24T09:37:51.556Z,4.90
2022-10-24T09:40:23.783Z,4.75
2022-10-24T09:42:55.673Z,3.90
2022-10-24T09:45:39.481Z,4.45
2022-10-24T09:48:17.662Z,4.13
2022-10-24T09:50:46.750Z,3.58
2022-10-24T09:53:29.128Z,2.60
2022-10-24T09:56:01.146Z,2.92
2022-10-24T09:58:32.925Z,4.07
2022-10-24T10:01:05.133Z,3.08
2022-10-24T10:03:34.547Z,2.50
2022-10-24T10:06:06.264Z,3.63
2022-10-24T10:08:36.223Z,2.17
2022-10-24T10:11:08.502Z,4.60
2022-10-24T10:13:45.486Z,3.75
2022-10-24T10:16:24.967Z,3.50
2022-10-24T10:18:54.280Z,3.50
2022-10-24T10:21:25.283Z,5.85
2022-10-24T10:23:55.240Z,2.45
2022-10-24T10:26:27.518Z,1.45
2022-10-24T10:29:02.154Z,2.08
2022-10-24T10:31:39.774Z,1.90
2022-10-24T10:34:27.165Z,3.92
2022-10-24T10:37:16.070Z,4.30
2022-10-24T10:40:10.688Z,2.40
2022-10-24T10:42:47.900Z,3.37
2022-10-24T10:45:19.442Z,3.13
2022-10-24T10:47:57.701Z,3.95
2022-10-24T10:50:30.437Z,5.45
2022-10-24T10:53:04.765Z,4.82
2022-10-24T10:55:38.634Z,3.03
2022-10-24T10:58:21.093Z,3.03
2022-10-24T11:00:54.781Z,3.70
2022-10-24T11:03:30.952Z,6.28
2022-10-24T11:06:08.519Z,3.53
2022-10-24T11:09:05.025Z,3.72
2022-10-24T11:11:34.828Z,3.25
2022-10-24T11:14:12.805Z,3.70
2022-10-24T11:16:41.365Z,2.42
2022-10-24T11:19:20.392Z,4.75
2022-10-24T11:21:49.316Z,1.92
2022-10-24T11:24:20.563Z,3.03
2022-10-24T11:26:54.622Z,2.53
2022-10-24T11:29:30.193Z,3.90
2022-10-24T11:32:00.714Z,1.98
2022-10-24T11:34:33.977Z,4.38
2022-10-24T11:37:05.410Z,3.17
2022-10-24T11:39:37.645Z,2.33
2022-10-24T11:42:08.366Z,8.10
2022-10-24T11:44:45.761Z,1.52
2022-10-24T11:47:32.486Z,7.13
2022-10-24T11:50:07.626Z,1.83
2022-10-24T11:52:40.306Z,3.03
2022-10-24T11:55:16.061Z,2.67
2022-10-24T11:57:45.689Z,1.52
2022-10-24T12:00:21.246Z,1.58
2022-10-24T12:03:29.771Z,2.47
2022-10-24T12:06:22.194Z,2.63
2022-10-24T12:09:33.598Z,3.28
2022-10-24T12:12:14.825Z,2.20
2022-10-24T12:15:03.210Z,1.90
2022-10-24T12:17:42.461Z,2.58
2022-10-24T12:20:16.875Z,2.00
2022-10-24T12:22:47.532Z,1.60
2022-10-24T12:25:23.192Z,1.52
2022-10-24T12:27:55.821Z,2.10
2022-10-24T12:30:25.740Z,1.60
2022-10-24T12:32:58.085Z,1.48
2022-10-24T12:35:38.622Z,4.30
2022-10-24T12:38:17.365Z,4.00
2022-10-24T12:40:57.801Z,1.73
2022-10-24T12:43:32.216Z,2.17
2022-10-24T12:46:01.584Z,1.23
2022-10-24T12:48:33.281Z,2.60
2022-10-24T12:51:07.390Z,1.63
2022-10-24T12:53:39.165Z,1.75
2022-10-24T13:01:33.451Z,3.22
2022-10-24T13:04:38.477Z,1.85
2022-10-24T13:07:35.689Z,1.45
2022-10-24T13:10:42.198Z,1.45
2022-10-24T13:13:32.080Z,2.17
2022-10-24T13:16:04.753Z,3.25
2022-10-24T13:18:45.190Z,2.70
2022-10-24T13:21:21.236Z,2.67
2022-10-24T13:23:51.666Z,1.13
2022-10-24T13:26:39.825Z,3.15
2022-10-24T13:29:14.523Z,2.30
2022-10-24T13:34:25.304Z,3.50
2022-10-24T13:37:00.995Z,1.90
2022-10-24T13:39:36.075Z,0.95
2022-10-24T13:42:10.104Z,1.58
2022-10-24T13:44:46.317Z,1.25
2022-10-24T13:47:18.555Z,1.85
2022-10-24T13:49:53.725Z,1.73
2022-10-24T13:52:26.726Z,3.70
2022-10-24T13:55:01.431Z,1.98
2022-10-24T13:57:33.912Z,2.58
2022-10-24T14:00:05.175Z,2.17
2022-10-24T14:02:41.316Z,2.88
2022-10-24T14:05:20.589Z,4.72
2022-10-24T14:07:49.154Z,3.00
2022-10-24T14:10:19.941Z,3.45
2022-10-24T14:12:52.044Z,5.15
2022-10-24T14:15:23.058Z,2.03
2022-10-24T14:17:57.111Z,2.00
2022-10-24T14:20:26.960Z,4.68
2022-10-24T14:22:55.749Z,2.90
2022-10-24T14:25:31.699Z,5.60
2022-10-24T14:28:02.111Z,1.50
2022-10-24T14:30:34.595Z,5.95
2022-10-24T14:33:08.977Z,3.33
2022-10-24T14:35:37.663Z,1.60
2022-10-24T14:38:09.623Z,5.47
2022-10-24T14:40:43.059Z,3.25
2022-10-24T14:43:15.251Z,3.75
2022-10-24T14:45:43.733Z,1.80
2022-10-24T14:48:24.219Z,2.25
2022-10-24T14:50:52.638Z,2.97
2022-10-24T14:53:25.329Z,2.30
2022-10-24T14:55:56.677Z,5.80
2022-10-24T14:58:26.791Z,3.22
2022-10-24T15:00:56.985Z,4.22
2022-10-24T15:03:25.704Z,3.13
2022-10-24T15:05:58.814Z,4.13
2022-10-24T15:08:34.477Z,4.25
2022-10-24T15:11:16.489Z,3.28
2022-10-24T15:14:05.279Z,8.82
2022-10-24T15:16:37.836Z,3.75
2022-10-24T15:19:07.371Z,4.40
2022-10-24T15:21:38.868Z,7.07
2022-10-24T15:24:08.108Z,4.72
2022-10-24T15:26:39.680Z,3.28
2022-10-24T15:29:16.720Z,3.38
2022-10-24T15:31:46.576Z,4.18
2022-10-24T15:34:16.342Z,6.05
2022-10-24T15:36:46.381Z,5.22
2022-10-24T15:39:16.596Z,2.80
2022-10-24T15:41:46.299Z,3.38
2022-10-24T15:44:17.729Z,3.42
2022-10-24T15:46:46.212Z,4.10
2022-10-24T15:49:14.715Z,3.97
2022-10-24T15:51:47.491Z,5.45
2022-10-24T15:54:19.696Z,5.78
2022-10-24T15:56:49.636Z,2.55
2022-10-24T15:59:18.658Z,6.18
2022-10-24T16:01:50.525Z,4.82
2022-10-24T16:04:20.298Z,4.05
2022-10-24T16:06:48.784Z,5.07
2022-10-24T16:09:18.090Z,3.80
2022-10-24T16:11:46.488Z,4.90
2022-10-24T16:14:17.861Z,4.90
2022-10-24T16:16:46.297Z,2.72
2022-10-24T16:19:15.203Z,3.63
2022-10-24T16:21:43.844Z,4.18
2022-10-24T16:24:12.826Z,3.13
2022-10-24T16:26:41.278Z,7.40
2022-10-24T16:29:09.621Z,3.90
2022-10-24T16:31:39.393Z,4.40
2022-10-24T16:34:09.043Z,4.68
2022-10-24T16:36:37.400Z,5.75
2022-10-24T16:39:05.763Z,5.35
2022-10-24T16:41:34.151Z,6.32
2022-10-24T16:44:02.594Z,5.70
2022-10-24T16:46:31.021Z,6.50
2022-10-24T16:49:00.797Z,10.00
2022-10-24T16:51:32.476Z,5.82
2022-10-24T16:54:01.968Z,5.10
2022-10-24T16:56:31.070Z,10.82
2022-10-24T16:58:59.542Z,6.78
2022-10-24T17:01:28.079Z,4.63
2022-10-24T17:03:56.713Z,7.90
2022-10-24T17:06:26.639Z,8.27
2022-10-24T17:08:55.022Z,6.65
2022-10-24T17:11:44.426Z,8.52
2022-10-24T17:14:14.223Z,10.88
2022-10-24T17:16:42.959Z,10.40
2022-10-24T17:19:16.092Z,10.90
2022-10-24T17:21:48.214Z,6.65
2022-10-24T17:24:18.039Z,6.65
2022-10-24T17:26:46.565Z,10.20
2022-10-24T17:29:17.043Z,11.57
2022-10-24T17:31:45.718Z,7.25
2022-10-24T17:34:14.247Z,15.25
2022-10-24T17:36:43.961Z,9.85
2022-10-24T17:39:16.005Z,11.90
2022-10-24T17:41:45.920Z,12.60
2022-10-24T17:44:17.483Z,9.70
2022-10-24T17:46:46.390Z,9.90
2022-10-24T17:49:20.872Z,11.23
2022-10-24T17:51:50.433Z,12.77
2022-10-24T17:54:20.161Z,11.70
2022-10-24T17:56:48.770Z,9.52
2022-10-24T17:59:17.362Z,11.70
2022-10-24T18:01:45.831Z,9.05
2022-10-24T18:04:14.354Z,7.22
2022-10-24T18:06:43.382Z,10.32
2022-10-24T18:09:12.755Z,7.82
2022-10-24T18:11:43.411Z,16.33
2022-10-24T18:14:11.705Z,10.82
2022-10-24T18:16:40.951Z,10.27
2022-10-24T18:19:09.510Z,9.18
2022-10-24T18:21:37.920Z,9.98
2022-10-24T18:24:08.159Z,10.18
2022-10-24T18:26:36.531Z,10.65
2022-10-24T18:29:06.384Z,9.82
2022-10-24T18:31:35.253Z,7.70
2022-10-24T18:34:06.333Z,9.07
2022-10-24T18:36:37.133Z,9.88
2022-10-24T18:39:06.176Z,10.43
2022-10-24T18:41:44.405Z,12.85
2022-10-24T18:44:24.468Z,12.57
2022-10-24T18:46:53.746Z,13.15
2022-10-24T18:49:22.796Z,9.57
2022-10-24T18:51:57.049Z,11.18
2022-10-24T18:54:25.661Z,9.05
2022-10-24T18:56:54.142Z,10.65
2022-10-24T18:59:24.318Z,10.50
2022-10-24T19:01:59.481Z,11.07
2022-10-24T19:04:28.294Z,10.65
2022-10-24T19:06:59.038Z,10.27
2022-10-24T19:09:27.816Z,8.40
2022-10-24T19:11:58.695Z,12.13
2022-10-24T19:14:29.207Z,8.13
2022-10-24T19:16:58.313Z,10.43
2022-10-24T19:19:28.188Z,7.40
2022-10-24T19:21:56.577Z,7.50
2022-10-24T19:24:24.951Z,11.60
2022-10-24T19:26:53.345Z,12.65
2022-10-24T19:29:27.996Z,11.10
2022-10-24T19:31:59.849Z,16.35
2022-10-24T19:34:30.962Z,10.52
2022-10-24T19:37:00.140Z,10.48
2022-10-24T19:39:33.831Z,12.07
2022-10-24T19:42:02.630Z,14.98
2022-10-24T19:44:31.031Z,10.50
2022-10-24T19:47:00.863Z,12.15
2022-10-24T19:49:29.268Z,8.68
2022-10-24T19:51:59.727Z,9.30
2022-10-24T19:54:28.262Z,8.20
2022-10-24T19:56:56.704Z,8.25
2022-10-24T19:59:26.085Z,13.25
2022-10-24T20:01:54.761Z,8.43
2022-10-24T20:04:24.661Z,9.23
2022-10-24T20:06:53.181Z,10.27
2022-10-24T20:09:21.662Z,7.80
2022-10-24T20:11:50.054Z,9.13
2022-10-24T20:14:18.598Z,11.50
2022-10-24T20:16:46.982Z,9.88
2022-10-24T20:19:15.421Z,10.18
2022-10-24T20:21:45.221Z,7.38
2022-10-24T20:24:13.641Z,10.15
2022-10-24T20:26:42.129Z,11.15
2022-10-24T20:29:10.554Z,10.35
2022-10-24T20:31:40.807Z,14.18
2022-10-24T20:34:10.073Z,9.20
2022-10-24T20:36:39.444Z,10.70
2022-10-24T20:39:09.896Z,11.02
2022-10-24T20:41:38.939Z,8.55
2022-10-24T20:44:08.329Z,6.47
2022-10-24T20:46:37.346Z,10.63
2022-10-24T20:49:05.937Z,10.93
2022-10-24T20:51:34.378Z,13.43
2022-10-24T20:54:03.324Z,8.52
2022-10-24T20:56:36.752Z,9.20
2022-10-24T20:59:08.426Z,9.90
2022-10-24T21:01:36.923Z,9.18
2022-10-24T21:04:05.597Z,10.98
2022-10-24T21:06:35.075Z,11.45
2022-10-24T21:09:05.236Z,8.10
2022-10-24T21:11:36.225Z,10.75
2022-10-24T21:14:06.467Z,9.65
2022-10-24T21:16:35.686Z,9.85
2022-10-24T21:19:04.468Z,11.77
2022-10-24T21:21:33.045Z,7.80
2022-10-24T21:24:05.866Z,5.93
2022-10-24T21:26:38.564Z,9.05
2022-10-24T21:29:14.935Z,8.60
2022-10-24T21:31:50.158Z,8.43
2022-10-24T21:34:18.695Z,9.55
2022-10-24T21:36:47.286Z,10.32
2022-10-24T21:39:16.437Z,8.07
2022-10-24T21:41:46.649Z,11.05
2022-10-24T21:44:15.505Z,12.75
2022-10-24T21:46:43.889Z,9.40
2022-10-24T21:49:12.475Z,8.57
2022-10-24T21:51:41.549Z,9.38
2022-10-24T21:54:16.577Z,9.02
2022-10-24T21:56:46.787Z,8.80
2022-10-24T21:59:16.453Z,8.13
2022-10-24T22:01:45.918Z,9.25
2022-10-24T22:04:15.209Z,8.32
2022-10-24T22:06:44.451Z,9.43
2022-10-24T22:09:15.470Z,8.13
2022-10-24T22:11:44.099Z,13.93
2022-10-24T22:14:15.645Z,7.07
2022-10-24T22:16:44.860Z,9.98
2022-10-24T22:19:14.139Z,8.88
2022-10-24T22:21:44.341Z,10.90
2022-10-24T22:24:14.786Z,10.40
2022-10-24T22:26:43.461Z,11.57
2022-10-24T22:29:16.050Z,8.27
2022-10-24T22:31:44.857Z,13.13
2022-10-24T22:34:15.984Z,10.23
2022-10-24T22:37:05.538Z,13.77
2022-10-24T22:39:34.836Z,11.65
2022-10-24T22:42:04.236Z,10.27
2022-10-24T22:44:35.046Z,11.70
2022-10-24T22:47:20.163Z,9.25
2022-10-24T22:52:21.409Z,8.05
2022-10-24T22:54:50.415Z,9.15
2022-10-24T22:57:19.285Z,9.48
2022-10-24T22:59:49.718Z,10.48
2022-10-24T23:02:26.203Z,9.23
2022-10-24T23:05:00.608Z,12.30
2022-10-24T23:07:33.530Z,12.73
2022-10-24T23:10:01.869Z,10.68
2022-10-24T23:12:31.708Z,10.52
2022-10-24T23:15:02.024Z,7.78
2022-10-24T23:17:32.929Z,13.55
2022-10-24T23:20:01.968Z,10.63
2022-10-24T23:22:33.233Z,6.60
2022-10-24T23:25:02.567Z,10.18
2022-10-24T23:27:35.429Z,7.57
2022-10-24T23:30:08.867Z,8.27
2022-10-24T23:32:39.324Z,10.10
2022-10-24T23:35:08.832Z,11.93
2022-10-24T23:37:39.097Z,10.32
2022-10-24T23:40:19.761Z,13.35
2022-10-24T23:42:49.195Z,12.07
2022-10-24T23:45:20.771Z,11.70
2022-10-24T23:48:09.933Z,14.73
2022-10-24T23:50:42.080Z,8.70
2022-10-24T23:53:22.534Z,10.80
2022-10-24T23:55:51.642Z,10.00
2022-10-24T23:58:20.268Z,6.60
